Time;durP1;ratioP1;P1;durP2;ratioP2;P2;SDS_P1;SDS_P2;PMS_P1;PMS_P2;Temp;Humidity;BMP_temperature;BMP_pressure;BME280_temperature;BME280_humidity;BME280_pressure;Samples;Min_cycle;Max_cycle;Signal;HPM_P1;HPM_P2
2023/06/09 00:03:07;;;;;;;11.68;10.05;;;;;;;11.49;100.00;96563.44;10576254;28;20305;-66
2023/06/09 00:08:08;;;;;;;13.88;9.68;;;;;;;11.48;100.00;96569.66;10584807;28;20198;-66
2023/06/09 00:13:09;;;;;;;13.75;9.55;;;;;;;11.41;100.00;96565.06;10584587;28;20208;-66
2023/06/09 00:18:14;;;;;;;11.07;9.93;;;;;;;11.38;100.00;96567.22;10584706;28;20349;-66
2023/06/09 00:23:15;;;;;;;12.10;10.90;;;;;;;11.35;100.00;96575.41;10584043;28;20222;-66
2023/06/09 00:28:15;;;;;;;12.40;11.07;;;;;;;11.31;100.00;96564.41;10584195;28;20262;-66
2023/06/09 00:33:15;;;;;;;16.00;12.07;;;;;;;11.31;100.00;96560.97;10564348;28;20292;-65
2023/06/09 00:38:16;;;;;;;14.23;10.98;;;;;;;11.33;100.00;96557.22;10583914;28;20193;-66
2023/06/09 00:43:16;;;;;;;14.40;11.85;;;;;;;11.34;100.00;96553.59;10583668;28;20233;-66
2023/06/09 00:48:16;;;;;;;13.73;11.82;;;;;;;11.33;100.00;96543.25;10583312;28;20189;-66
2023/06/09 00:53:17;;;;;;;13.88;11.38;;;;;;;11.38;100.00;96544.41;10583207;28;20567;-66
2023/06/09 00:58:18;;;;;;;16.13;11.98;;;;;;;11.35;100.00;96543.94;10582835;28;20189;-66
2023/06/09 01:03:18;;;;;;;14.02;11.85;;;;;;;11.30;100.00;96543.59;10582108;28;20584;-66
2023/06/09 01:08:22;;;;;;;16.25;13.13;;;;;;;11.13;100.00;96548.03;10582412;28;20186;-66
2023/06/09 01:13:39;;;;;;;17.42;12.60;;;;;;;11.15;100.00;96540.81;10564148;28;20198;-66
2023/06/09 01:18:42;;;;;;;13.40;11.73;;;;;;;11.11;100.00;96542.13;10582055;28;20229;-66
2023/06/09 01:24:14;;;;;;;14.65;12.93;;;;;;;11.09;100.00;96539.69;10547079;28;20259;-66
2023/06/09 01:29:15;;;;;;;13.65;12.30;;;;;;;11.03;100.00;96533.28;10563733;28;20189;-66
2023/06/09 01:34:15;;;;;;;13.55;12.18;;;;;;;11.09;100.00;96530.97;10546490;28;20274;-66
2023/06/09 01:39:16;;;;;;;15.40;12.60;;;;;;;11.07;100.00;96526.72;10546146;28;20246;-66
2023/06/09 01:44:16;;;;;;;22.65;12.15;;;;;;;10.98;100.00;96517.22;10554684;22;20240;-68
2023/06/09 01:49:29;;;;;;;12.00;10.82;;;;;;;10.89;100.00;96510.34;10537052;28;20547;-68
2023/06/09 01:54:34;;;;;;;14.23;11.15;;;;;;;10.82;100.00;96519.84;10538405;28;20203;-67
2023/06/09 01:59:46;;;;;;;16.23;12.35;;;;;;;10.81;100.00;96526.06;10538228;28;20222;-68
2023/06/09 02:04:48;;;;;;;13.80;11.93;;;;;;;10.74;100.00;96520.66;10503366;28;20734;-68
2023/06/09 02:09:49;;;;;;;13.85;10.10;;;;;;;10.66;100.00;96521.47;10519795;28;20665;-67
2023/06/09 02:14:49;;;;;;;17.35;11.90;;;;;;;10.59;100.00;96517.03;10519620;28;20202;-67
2023/06/09 02:19:50;;;;;;;16.60;10.82;;;;;;;10.61;100.00;96515.06;10537543;28;20572;-68
2023/06/09 02:24:52;;;;;;;12.25;10.82;;;;;;;10.58;100.00;96521.47;10518892;28;20214;-67
2023/06/09 02:29:52;;;;;;;17.45;11.07;;;;;;;10.56;100.00;96510.31;10518996;28;20187;-67
2023/06/09 02:34:52;;;;;;;15.10;10.70;;;;;;;10.45;100.00;96508.81;10518762;28;20194;-67
2023/06/09 02:39:53;;;;;;;12.25;11.00;;;;;;;10.41;100.00;96504.06;10518680;28;20208;-67
2023/06/09 02:44:54;;;;;;;12.93;11.63;;;;;;;10.42;100.00;96497.84;10518163;28;20321;-68
2023/06/09 02:49:54;;;;;;;10.10;9.02;;;;;;;10.35;100.00;96511.59;10536010;28;20198;-67
2023/06/09 02:54:55;;;;;;;11.07;9.97;;;;;;;10.29;100.00;96514.81;10535819;28;20210;-67
2023/06/09 02:59:58;;;;;;;15.13;11.43;;;;;;;10.24;100.00;96511.03;10517957;28;20190;-68
2023/06/09 03:04:58;;;;;;;14.80;10.05;;;;;;;10.15;100.00;96502.31;10543503;28;20604;-67
2023/06/09 03:10:00;;;;;;;16.35;9.15;;;;;;;10.09;100.00;96500.34;10559756;28;20204;-68
2023/06/09 03:15:01;;;;;;;10.23;9.23;;;;;;;10.09;100.00;96503.78;10559730;28;20202;-68
2023/06/09 03:20:05;;;;;;;11.47;10.27;;;;;;;10.13;100.00;96504.28;10559647;28;20707;-68
2023/06/09 03:25:05;;;;;;;12.13;9.47;;;;;;;10.10;100.00;96501.97;10558890;28;20358;-68
2023/06/09 03:30:06;;;;;;;11.93;10.60;;;;;;;10.14;100.00;96511.97;10558991;28;20300;-68
2023/06/09 03:35:08;;;;;;;10.43;9.33;;;;;;;10.17;100.00;96503.81;10559427;28;20206;-67
2023/06/09 03:40:10;;;;;;;11.20;10.10;;;;;;;10.10;100.00;96502.78;10559698;28;20272;-68
2023/06/09 03:45:11;;;;;;;11.53;10.43;;;;;;;10.02;100.00;96507.19;10558875;28;20306;-68
2023/06/09 03:50:11;;;;;;;18.37;10.10;;;;;;;10.07;100.00;96512.75;10577200;28;20612;-68
2023/06/09 03:55:12;;;;;;;14.63;9.48;;;;;;;10.16;100.00;96511.81;10558916;28;20206;-68
2023/06/09 04:00:15;;;;;;;10.77;9.73;;;;;;;10.19;100.00;96506.25;10576830;28;20228;-68
2023/06/09 04:05:17;;;;;;;13.33;9.23;;;;;;;10.25;100.00;96504.81;10578308;28;20260;-67
2023/06/09 04:10:20;;;;;;;11.20;10.00;;;;;;;10.22;100.00;96507.75;10553998;28;20240;-67
2023/06/09 04:15:20;;;;;;;10.73;9.63;;;;;;;10.35;100.00;96510.75;10524288;28;20256;-68
2023/06/09 04:20:25;;;;;;;11.50;9.17;;;;;;;10.44;100.00;96501.13;10602869;27;20189;-68
2023/06/09 04:25:27;;;;;;;10.60;8.87;;;;;;;10.54;100.00;96501.78;10608492;27;20217;-68
2023/06/09 04:30:30;;;;;;;11.90;9.47;;;;;;;10.71;100.00;96500.81;10608331;27;20189;-68
2023/06/09 04:35:31;;;;;;;15.80;8.60;;;;;;;10.91;100.00;96490.03;10608034;27;20236;-68
2023/06/09 04:40:33;;;;;;;11.95;9.77;;;;;;;11.03;100.00;96498.38;10608396;27;20239;-68
2023/06/09 04:45:36;;;;;;;9.60;8.27;;;;;;;11.21;100.00;96490.34;10607266;27;20294;-68
2023/06/09 04:50:47;;;;;;;10.25;8.60;;;;;;;11.50;100.00;96486.34;10607327;27;20196;-67
2023/06/09 04:55:52;;;;;;;12.57;8.10;;;;;;;11.86;100.00;96478.84;10607329;27;20216;-67
2023/06/09 05:00:53;;;;;;;11.55;8.80;;;;;;;12.19;100.00;96473.50;10606796;27;20693;-67
2023/06/09 05:05:53;;;;;;;11.68;8.10;;;;;;;12.69;100.00;96475.81;10606481;27;20265;-67
2023/06/09 05:10:56;;;;;;;13.32;7.40;;;;;;;12.99;100.00;96474.09;10606171;27;20227;-67
2023/06/09 05:15:59;;;;;;;8.82;7.60;;;;;;;13.40;100.00;96473.75;10606180;27;20283;-67
2023/06/09 05:21:00;;;;;;;11.82;7.72;;;;;;;13.80;100.00;96463.75;10605801;27;20675;-67
2023/06/09 05:26:00;;;;;;;8.57;7.28;;;;;;;14.14;100.00;96462.34;10624106;27;20296;-67
2023/06/09 05:31:01;;;;;;;13.43;7.22;;;;;;;14.43;100.00;96460.63;10624297;27;20181;-67
2023/06/09 05:36:02;;;;;;;9.65;6.85;;;;;;;14.67;100.00;96464.78;10580733;27;20195;-68
2023/06/09 05:41:02;;;;;;;8.80;7.55;;;;;;;15.13;100.00;96468.78;10531759;28;20243;-68
2023/06/09 05:46:03;;;;;;;8.23;6.82;;;;;;;15.58;100.00;96458.75;10567938;28;20309;-68
2023/06/09 05:51:03;;;;;;;8.07;6.93;;;;;;;15.87;100.00;96456.91;10568889;28;20214;-68
2023/06/09 05:56:04;;;;;;;10.90;7.43;;;;;;;15.75;100.00;96459.25;10537786;28;20214;-68
2023/06/09 06:01:04;;;;;;;8.60;7.13;;;;;;;15.81;100.00;96471.69;10538066;28;20191;-68
2023/06/09 06:06:05;;;;;;;12.27;7.32;;;;;;;16.49;100.00;96459.53;10551736;28;20587;-69
2023/06/09 06:11:05;;;;;;;10.45;7.28;;;;;;;16.67;100.00;96461.63;10579231;28;20534;-69
2023/06/09 06:16:06;;;;;;;13.70;7.68;;;;;;;17.06;100.00;96458.22;10577679;28;20217;-69
2023/06/09 06:21:06;;;;;;;10.48;7.32;;;;;;;17.56;100.00;96464.91;10579319;28;20215;-68
2023/06/09 06:26:06;;;;;;;8.32;6.65;;;;;;;18.14;98.45;96451.69;10578961;28;20579;-68
2023/06/09 06:31:08;;;;;;;9.77;7.00;;;;;;;18.98;88.68;96414.47;10557628;28;20240;-68
2023/06/09 06:36:08;;;;;;;9.10;6.00;;;;;;;20.44;85.60;96426.38;10575991;28;20212;-66
2023/06/09 06:41:09;;;;;;;11.88;6.20;;;;;;;20.83;81.15;96418.88;10577554;28;20189;-68
2023/06/09 06:46:15;;;;;;;7.05;6.45;;;;;;;21.69;73.52;96363.25;10576787;28;20222;-67
2023/06/09 06:51:15;;;;;;;7.55;6.10;;;;;;;23.17;65.36;96312.69;10576923;28;20190;-69
2023/06/09 06:56:16;;;;;;;8.77;5.95;;;;;;;23.31;65.51;96331.84;10575784;28;20278;-68
2023/06/09 07:01:24;;;;;;;7.80;6.10;;;;;;;21.66;69.36;96377.06;10542391;28;20250;-68
2023/06/09 07:06:25;;;;;;;11.20;6.20;;;;;;;22.56;69.30;96372.09;10553763;28;20217;-69
2023/06/09 07:11:25;;;;;;;11.18;6.28;;;;;;;22.52;69.16;96380.84;10568422;28;20687;-67
2023/06/09 07:16:26;;;;;;;7.32;5.30;;;;;;;24.57;63.13;96338.06;10533648;28;20645;-69
2023/06/09 07:21:29;;;;;;;6.90;5.57;;;;;;;26.52;56.96;96302.44;10534639;28;20194;-69
2023/06/09 07:26:29;;;;;;;7.97;5.55;;;;;;;26.80;55.13;96301.13;10533581;28;20219;-69
2023/06/09 07:31:30;;;;;;;7.10;5.72;;;;;;;25.96;57.50;96327.31;10534081;28;20197;-69
2023/06/09 07:36:34;;;;;;;8.23;6.18;;;;;;;25.27;56.20;96287.06;10518368;28;20304;-69
2023/06/09 07:41:35;;;;;;;6.82;5.30;;;;;;;26.32;56.55;96320.16;10579316;28;20186;-69
2023/06/09 07:46:35;;;;;;;7.47;6.45;;;;;;;24.95;59.62;96335.41;10572364;22;20852;-63
2023/06/09 07:51:37;;;;;;;10.27;5.95;;;;;;;26.22;55.26;96298.66;10583796;28;20202;-63
2023/06/09 07:56:37;;;;;;;7.38;6.18;;;;;;;26.25;53.58;96255.16;10619601;27;20209;-63
2023/06/09 08:01:38;;;;;;;9.57;6.10;;;;;;;26.41;54.12;96300.84;10626356;27;20185;-63
2023/06/09 08:06:39;;;;;;;8.75;6.00;;;;;;;25.99;54.38;96284.66;10625964;27;20252;-62
2023/06/09 08:11:39;;;;;;;9.57;7.00;;;;;;;27.11;54.43;96319.09;10625065;27;20197;-63
2023/06/09 08:16:40;;;;;;;9.80;6.40;;;;;;;27.45;50.33;96265.47;10625367;27;20284;-64
2023/06/09 08:21:43;;;;;;;6.90;5.97;;;;;;;27.94;51.25;96293.47;10625940;27;20465;-65
2023/06/09 08:26:43;;;;;;;8.00;6.07;;;;;;;26.73;54.25;96297.88;10624544;27;20578;-64
2023/06/09 08:31:44;;;;;;;8.03;7.07;;;;;;;26.17;58.08;96357.72;10625266;27;20284;-63
2023/06/09 08:36:44;;;;;;;7.03;5.72;;;;;;;28.02;51.26;96292.91;10624510;27;20814;-64
2023/06/09 08:41:49;;;;;;;6.70;6.05;;;;;;;27.87;50.98;96274.13;10623437;27;20309;-63
2023/06/09 08:46:50;;;;;;;7.90;6.40;;;;;;;27.01;55.65;96341.41;10624514;27;20282;-64
2023/06/09 08:51:51;;;;;;;8.10;6.25;;;;;;;27.32;52.48;96299.16;10623128;27;20225;-65
2023/06/09 08:56:52;;;;;;;7.95;6.18;;;;;;;27.22;52.29;96285.69;10623676;27;20293;-65
2023/06/09 09:01:53;;;;;;;13.73;7.35;;;;;;;26.68;52.75;96290.63;10623507;27;20994;-64
2023/06/09 09:06:53;;;;;;;13.85;7.40;;;;;;;27.31;50.15;96254.47;10560257;28;20240;-64
2023/06/09 09:11:57;;;;;;;11.10;6.80;;;;;;;26.87;51.67;96279.31;10563920;28;20660;-66
2023/06/09 09:16:58;;;;;;;27.35;9.25;;;;;;;27.43;47.63;96221.91;10573325;28;20259;-64
2023/06/09 09:22:03;;;;;;;8.70;5.77;;;;;;;26.98;49.07;96234.41;10580859;28;20198;-65
2023/06/09 09:27:14;;;;;;;8.38;5.80;;;;;;;26.17;52.26;96272.63;10562278;28;20476;-65
2023/06/09 09:32:16;;;;;;;7.53;5.78;;;;;;;27.52;51.45;96286.69;10580321;28;20197;-65
2023/06/09 09:37:16;;;;;;;9.30;6.43;;;;;;;26.59;50.61;96249.25;10579551;28;20213;-64
2023/06/09 09:42:18;;;;;;;12.52;5.50;;;;;;;27.16;47.73;96224.94;10579730;27;20559;-65
2023/06/09 09:47:19;;;;;;;8.55;6.05;;;;;;;27.40;50.46;96284.31;10578095;28;20269;-67
2023/06/09 09:52:26;;;;;;;9.68;6.13;;;;;;;27.63;48.90;96261.34;10579449;28;20639;-66
2023/06/09 09:57:31;;;;;;;8.38;6.63;;;;;;;27.68;46.92;96230.91;10596270;27;20193;-68
2023/06/09 10:02:33;;;;;;;8.30;6.20;;;;;;;27.76;48.90;96268.81;10592881;27;20205;-65
2023/06/09 10:07:38;;;;;;;11.90;7.05;;;;;;;26.95;48.89;96229.56;10559852;28;20204;-67
2023/06/09 10:12:38;;;;;;;10.20;6.22;;;;;;;27.46;49.92;96268.94;10576919;28;20193;-67
2023/06/09 10:17:41;;;;;;;11.82;6.88;;;;;;;27.57;49.90;96262.47;10583632;27;20196;-67
2023/06/09 10:22:42;;;;;;;8.85;7.20;;;;;;;26.88;50.00;96236.03;10620737;27;20185;-68
2023/06/09 10:27:42;;;;;;;11.55;6.88;;;;;;;27.51;49.43;96261.66;10620227;27;20221;-68
2023/06/09 10:32:48;;;;;;;10.93;6.53;;;;;;;28.03;48.49;96242.56;10543971;28;20229;-66
2023/06/09 10:37:50;;;;;;;12.27;6.63;;;;;;;28.55;46.54;96218.69;10515628;28;20221;-67
2023/06/09 10:43:10;;;;;;;11.93;6.20;;;;;;;27.73;47.17;96203.97;10533897;28;20226;-67
2023/06/09 10:48:10;;;;;;;13.15;4.03;;;;;;;28.11;43.81;96143.09;10518110;28;20198;-66
2023/06/09 10:53:15;;;;;;;5.27;3.60;;;;;;;28.64;42.56;96141.56;10576844;27;20660;-66
2023/06/09 10:58:36;;;;;;;7.10;3.83;;;;;;;28.99;41.15;96139.53;10619513;27;20434;-67
2023/06/09 11:03:36;;;;;;;7.40;4.32;;;;;;;28.39;42.63;96143.41;10619056;27;20308;-67
2023/06/09 11:09:14;;;;;;;6.83;5.23;;;;;;;28.15;44.56;96170.28;10619131;27;20865;-68
2023/06/09 11:14:46;;;;;;;6.15;5.03;;;;;;;28.39;44.65;96183.00;10617679;27;20964;-66
2023/06/09 11:19:48;;;;;;;6.78;5.05;;;;;;;27.70;45.65;96159.59;10616608;27;20192;-67
2023/06/09 11:24:49;;;;;;;7.05;4.60;;;;;;;27.29;43.29;96103.31;10615344;28;20223;-67
2023/06/09 11:30:06;;;;;;;5.78;4.70;;;;;;;27.91;44.15;96137.88;10613592;28;20667;-66
2023/06/09 11:35:07;;;;;;;6.13;5.22;;;;;;;27.40;46.33;96182.91;10597315;28;20574;-67
2023/06/09 11:40:08;;;;;;;9.98;4.82;;;;;;;28.49;42.98;96150.56;10617663;28;20191;-66
2023/06/09 11:45:09;;;;;;;6.90;4.47;;;;;;;29.22;43.94;96191.03;10616975;28;20233;-66
2023/06/09 11:50:14;;;;;;;8.82;4.55;;;;;;;29.01;41.46;96118.47;10599871;28;20208;-67
2023/06/09 11:55:15;;;;;;;4.63;4.18;;;;;;;29.95;41.62;96149.25;10617023;28;20213;-66
2023/06/09 12:00:18;;;;;;;6.88;4.25;;;;;;;29.26;41.64;96128.13;10543110;28;20207;-67
2023/06/09 12:05:19;;;;;;;6.03;4.43;;;;;;;30.08;41.28;96139.59;10574755;28;20222;-66
2023/06/09 12:10:22;;;;;;;8.35;4.53;;;;;;;30.00;39.30;96100.56;10575356;28;20607;-66
2023/06/09 12:15:27;;;;;;;6.63;4.07;;;;;;;29.41;40.84;96097.44;10574796;28;20210;-66
2023/06/09 12:20:37;;;;;;;4.70;4.30;;;;;;;29.68;38.79;96058.94;10537163;28;20572;-67
2023/06/09 12:25:41;;;;;;;4.93;3.80;;;;;;;30.24;38.37;96072.56;10541339;28;20213;-65
2023/06/09 12:30:47;;;;;;;5.05;4.22;;;;;;;31.14;36.54;96066.75;10581791;28;20683;-66
2023/06/09 12:35:50;;;;;;;6.45;3.72;;;;;;;31.27;35.92;96041.56;10582248;28;20221;-65
2023/06/09 12:40:56;;;;;;;4.47;3.80;;;;;;;31.36;36.31;96052.44;10581370;28;20194;-66
2023/06/09 12:45:57;;;;;;;5.53;3.83;;;;;;;31.27;35.44;96028.03;10578372;28;20309;-66
2023/06/09 12:50:58;;;;;;;10.20;4.18;;;;;;;30.63;37.28;96048.88;10549712;28;20200;-65
2023/06/09 12:55:58;;;;;;;6.50;3.90;;;;;;;31.83;33.84;96003.38;10570458;27;20562;-65
2023/06/09 13:00:58;;;;;;;5.13;3.90;;;;;;;33.00;33.22;96039.19;10561434;28;20226;-66
2023/06/09 13:05:59;;;;;;;4.22;3.83;;;;;;;33.60;31.93;96010.44;10559635;28;20624;-64
2023/06/09 13:10:59;;;;;;;6.03;3.90;;;;;;;33.66;31.50;96008.34;10550720;28;20650;-66
2023/06/09 13:16:00;;;;;;;5.53;3.63;;;;;;;34.05;29.58;95956.78;10561263;28;20595;-65
2023/06/09 13:21:00;;;;;;;4.72;3.40;;;;;;;33.40;31.11;95967.66;10552896;28;20603;-67
2023/06/09 13:26:01;;;;;;;3.97;3.20;;;;;;;33.64;31.95;96002.44;10578837;28;20230;-67
2023/06/09 13:31:01;;;;;;;4.25;3.70;;;;;;;32.84;34.49;96036.13;10557353;28;20482;-67
2023/06/09 13:36:03;;;;;;;6.03;3.67;;;;;;;32.07;33.11;95970.50;10579502;28;20230;-69
2023/06/09 13:41:03;;;;;;;5.32;4.15;;;;;;;31.58;34.37;95986.69;10578779;28;20235;-68
2023/06/09 13:46:03;;;;;;;4.57;3.97;;;;;;;31.07;36.25;96004.94;10580202;22;20230;-69
2023/06/09 13:51:04;;;;;;;5.53;3.87;;;;;;;31.02;37.03;96020.50;10574709;28;20317;-70
2023/06/09 13:56:05;;;;;;;5.57;3.13;;;;;;;30.20;36.38;95975.13;10556608;28;20471;-69
2023/06/09 14:01:05;;;;;;;3.90;3.35;;;;;;;30.75;35.14;95959.91;10536350;28;20194;-68
2023/06/09 14:06:06;;;;;;;3.90;3.40;;;;;;;30.86;35.31;95971.31;10552245;28;20798;-68
2023/06/09 14:11:06;;;;;;;6.28;3.50;;;;;;;31.05;35.92;95996.31;10538438;28;20560;-69
2023/06/09 14:16:06;;;;;;;7.85;3.75;;;;;;;30.35;33.60;95900.22;10552875;28;20230;-68
2023/06/09 14:21:07;;;;;;;4.83;3.20;;;;;;;29.99;33.32;95879.38;10550191;28;20611;-69
2023/06/09 14:26:07;;;;;;;4.07;3.40;;;;;;;30.56;33.36;95906.00;10570631;28;21760;-68
2023/06/09 14:31:08;;;;;;;5.47;3.57;;;;;;;32.68;31.35;95934.63;10577609;28;20956;-69
2023/06/09 14:36:09;;;;;;;4.15;3.33;;;;;;;35.36;27.37;95947.72;10567662;28;20998;-69
2023/06/09 14:41:10;;;;;;;3.28;2.95;;;;;;;34.61;27.63;95911.19;10571743;28;20598;-69
2023/06/09 14:46:10;;;;;;;6.97;3.40;;;;;;;34.59;27.04;95882.72;10560961;28;20312;-68
2023/06/09 14:51:11;;;;;;;8.52;2.92;;;;;;;36.23;26.72;95951.34;10552126;28;20246;-68
2023/06/09 14:56:13;;;;;;;6.07;3.47;;;;;;;34.90;27.16;95890.50;10572040;28;20304;-69
2023/06/09 15:01:13;;;;;;;7.88;3.35;;;;;;;33.24;29.71;95896.78;10574347;28;20189;-68
2023/06/09 15:06:14;;;;;;;10.67;3.27;;;;;;;34.91;28.52;95937.53;10574243;28;20586;-68
2023/06/09 15:11:14;;;;;;;5.17;2.97;;;;;;;36.27;25.70;95929.69;10574778;28;20750;-69
2023/06/09 15:16:14;;;;;;;3.67;3.27;;;;;;;34.16;28.01;95879.16;10571439;28;20446;-68
2023/06/09 15:21:15;;;;;;;3.80;3.40;;;;;;;35.22;26.80;95895.44;10575058;28;20236;-69
2023/06/09 15:26:16;;;;;;;4.40;3.43;;;;;;;35.03;28.34;95934.88;10574760;28;20486;-69
2023/06/09 15:31:16;;;;;;;3.75;3.25;;;;;;;35.60;27.35;95924.38;10574848;28;20458;-70
2023/06/09 15:36:16;;;;;;;5.85;3.50;;;;;;;34.47;27.90;95886.97;10571824;28;20743;-68
2023/06/09 15:41:17;;;;;;;5.03;2.93;;;;;;;33.88;28.18;95876.13;10600889;28;20200;-68
2023/06/09 15:46:17;;;;;;;6.65;3.20;;;;;;;34.47;28.36;95916.88;10617983;28;20236;-68
2023/06/09 15:51:17;;;;;;;5.13;3.70;;;;;;;33.20;27.86;95839.63;10618554;28;20177;-68
2023/06/09 15:56:18;;;;;;;4.57;3.20;;;;;;;32.16;29.80;95830.44;10617989;28;20460;-69
2023/06/09 16:01:18;;;;;;;5.67;3.20;;;;;;;31.77;32.07;95885.47;10618873;27;20482;-68
2023/06/09 16:06:19;;;;;;;4.13;3.37;;;;;;;30.81;32.79;95877.56;10626247;27;20543;-68
2023/06/09 16:11:19;;;;;;;4.93;3.78;;;;;;;30.05;31.98;95808.75;10624468;27;20439;-68
2023/06/09 16:16:19;;;;;;;5.40;3.58;;;;;;;29.55;34.74;95891.56;10625500;27;20213;-68
2023/06/09 16:21:22;;;;;;;5.63;3.60;;;;;;;29.22;33.34;95843.03;10623670;27;20189;-68
2023/06/09 16:26:26;;;;;;;4.80;3.50;;;;;;;28.87;35.33;95877.59;10621312;27;20518;-67
2023/06/09 16:31:27;;;;;;;6.28;3.97;;;;;;;28.19;36.01;95869.66;10624173;27;20242;-69
2023/06/09 16:36:27;;;;;;;10.65;3.72;;;;;;;27.59;38.59;95927.41;10591448;27;20680;-68
2023/06/09 16:41:28;;;;;;;4.30;3.30;;;;;;;27.75;38.20;95919.19;10559196;27;20770;-68
2023/06/09 16:46:29;;;;;;;5.05;4.00;;;;;;;27.04;38.30;95891.88;10559384;28;20230;-68
2023/06/09 16:51:30;;;;;;;4.97;3.80;;;;;;;27.69;38.28;95918.44;10582960;28;20193;-68
2023/06/09 16:56:30;;;;;;;3.63;3.33;;;;;;;27.48;38.17;95925.13;10546889;28;20213;-68
2023/06/09 17:01:30;;;;;;;5.83;3.97;;;;;;;27.20;39.22;95936.38;10579569;28;20276;-68
2023/06/09 17:06:31;;;;;;;5.77;4.00;;;;;;;26.74;41.60;95989.66;10582231;28;20483;-68
2023/06/09 17:11:31;;;;;;;4.73;4.07;;;;;;;25.94;40.24;95924.19;10552160;28;20510;-67
2023/06/09 17:16:32;;;;;;;4.70;3.88;;;;;;;25.90;42.73;95985.66;10539046;28;20453;-68
2023/06/09 17:21:33;;;;;;;10.88;4.72;;;;;;;26.19;42.84;96014.59;10539543;28;20189;-68
2023/06/09 17:26:34;;;;;;;6.35;4.30;;;;;;;26.03;40.95;95962.03;10539424;28;20227;-68
2023/06/09 17:31:34;;;;;;;4.57;4.10;;;;;;;26.09;41.70;95991.25;10539213;28;20687;-68
2023/06/09 17:36:34;;;;;;;34.28;5.13;;;;;;;26.07;42.74;96012.22;10537663;28;20970;-69
2023/06/09 17:41:35;;;;;;;37.38;5.10;;;;;;;25.78;44.58;96036.94;10538879;28;20201;-69
2023/06/09 17:46:35;;;;;;;6.97;4.10;;;;;;;25.85;44.14;96042.03;10538181;28;20333;-69
2023/06/09 17:51:36;;;;;;;4.67;4.10;;;;;;;25.26;43.53;96003.94;10538713;28;20437;-69
2023/06/09 17:56:36;;;;;;;6.00;4.32;;;;;;;24.93;46.80;96059.66;10538155;28;20505;-69
2023/06/09 18:01:37;;;;;;;12.23;4.10;;;;;;;24.87;46.86;96070.59;10538441;28;20226;-69
2023/06/09 18:06:37;;;;;;;5.03;4.32;;;;;;;24.61;47.01;96067.84;10537893;28;20491;-69
2023/06/09 18:11:37;;;;;;;5.13;4.00;;;;;;;24.36;47.22;96068.50;10538114;28;20178;-69
2023/06/09 18:16:38;;;;;;;5.00;4.30;;;;;;;24.50;47.08;96076.88;10537579;28;20471;-69
2023/06/09 18:21:38;;;;;;;4.15;3.75;;;;;;;24.46;48.57;96108.72;10537958;28;20439;-69
2023/06/09 18:26:39;;;;;;;5.97;3.83;;;;;;;24.17;50.25;96141.22;10537537;28;20230;-70
2023/06/09 18:31:39;;;;;;;6.53;4.05;;;;;;;23.30;53.96;96175.19;10537066;28;20270;-70
2023/06/09 18:36:40;;;;;;;6.25;3.90;;;;;;;22.88;55.36;96189.09;10536679;28;20234;-70
2023/06/09 18:41:41;;;;;;;9.73;4.57;;;;;;;21.78;59.15;96237.59;10536683;28;20561;-69
2023/06/09 18:46:41;;;;;;;5.65;4.72;;;;;;;20.85;62.26;96271.16;10536192;28;20665;-69
2023/06/09 18:51:41;;;;;;;8.50;4.90;;;;;;;20.68;63.41;96288.88;10518445;28;20550;-69
2023/06/09 18:56:42;;;;;;;8.85;4.72;;;;;;;20.13;66.35;96316.50;10536212;28;20215;-69
2023/06/09 19:01:42;;;;;;;5.70;5.10;;;;;;;19.87;67.20;96305.22;10535944;28;20204;-68
2023/06/09 19:06:42;;;;;;;10.02;5.00;;;;;;;19.15;70.37;96323.63;10535304;28;20253;-68
2023/06/09 19:11:43;;;;;;;7.85;5.32;;;;;;;18.96;71.83;96320.13;10556131;28;20197;-67
2023/06/09 19:16:43;;;;;;;10.68;5.10;;;;;;;18.41;75.60;96334.88;10577774;28;20255;-68
2023/06/09 19:21:45;;;;;;;9.90;5.38;;;;;;;18.28;77.00;96332.31;10579436;28;20193;-66
2023/06/09 19:26:46;;;;;;;11.95;6.35;;;;;;;17.89;82.08;96355.38;10576197;28;20582;-67
2023/06/09 19:31:46;;;;;;;7.75;5.95;;;;;;;17.80;84.06;96352.94;10575917;28;20197;-66
2023/06/09 19:36:46;;;;;;;13.02;6.70;;;;;;;17.53;86.53;96354.88;10573113;28;20205;-67
2023/06/09 19:41:47;;;;;;;8.95;5.82;;;;;;;17.55;87.58;96373.19;10586025;28;20217;-66
2023/06/09 19:46:47;;;;;;;10.85;6.72;;;;;;;17.45;88.11;96369.16;10585237;22;20254;-65
2023/06/09 19:51:47;;;;;;;15.13;6.75;;;;;;;17.38;88.52;96378.97;10542161;28;20197;-65
2023/06/09 19:56:48;;;;;;;9.93;6.80;;;;;;;17.16;90.64;96386.34;10543124;28;20290;-65
2023/06/09 20:01:48;;;;;;;7.75;6.72;;;;;;;16.87;92.79;96380.47;10542472;28;20253;-65
2023/06/09 20:06:48;;;;;;;8.13;6.75;;;;;;;16.84;93.61;96386.13;10542650;28;20242;-65
2023/06/09 20:11:49;;;;;;;9.05;6.82;;;;;;;16.65;95.01;96384.31;10542432;28;20244;-65
2023/06/09 20:16:50;;;;;;;8.73;6.88;;;;;;;16.53;95.50;96381.47;10542328;28;20206;-65
2023/06/09 20:21:51;;;;;;;11.68;7.45;;;;;;;16.28;98.24;96383.84;10542499;28;20186;-66
2023/06/09 20:26:51;;;;;;;9.30;6.97;;;;;;;16.09;100.00;96380.97;10542547;28;20218;-67
2023/06/09 20:31:52;;;;;;;9.93;6.90;;;;;;;15.97;100.00;96378.09;10541908;28;20194;-68
2023/06/09 20:36:52;;;;;;;11.10;6.90;;;;;;;15.86;100.00;96387.41;10538525;28;20259;-67
2023/06/09 20:41:53;;;;;;;9.50;7.03;;;;;;;15.66;100.00;96395.19;10541016;28;20608;-66
2023/06/09 20:46:53;;;;;;;7.53;6.70;;;;;;;15.56;100.00;96388.66;10540764;28;20975;-66
2023/06/09 20:51:53;;;;;;;9.60;7.03;;;;;;;15.45;100.00;96409.34;10540818;28;20248;-67
2023/06/09 20:56:54;;;;;;;13.20;8.05;;;;;;;15.33;100.00;96403.78;10541208;28;20958;-67
2023/06/09 21:01:54;;;;;;;8.63;6.57;;;;;;;15.27;100.00;96407.19;10540652;28;20241;-67
2023/06/09 21:06:56;;;;;;;7.65;6.85;;;;;;;15.21;100.00;96405.34;10540498;28;20646;-66
2023/06/09 21:11:56;;;;;;;8.20;6.75;;;;;;;15.04;100.00;96411.91;10540479;28;20260;-67
2023/06/09 21:16:56;;;;;;;8.23;6.80;;;;;;;14.90;100.00;96403.91;10539903;28;20272;-66
2023/06/09 21:21:57;;;;;;;8.38;7.47;;;;;;;14.79;100.00;96414.94;10540056;28;20716;-66
2023/06/09 21:26:57;;;;;;;8.20;7.40;;;;;;;14.72;100.00;96414.91;10539551;28;20913;-66
2023/06/09 21:31:57;;;;;;;9.18;7.13;;;;;;;14.59;100.00;96412.13;10539615;28;20660;-67
2023/06/09 21:36:58;;;;;;;8.90;7.20;;;;;;;14.56;100.00;96423.03;10539292;28;20221;-66
2023/06/09 21:41:59;;;;;;;12.45;8.18;;;;;;;14.43;100.00;96418.47;10539029;28;20191;-66
2023/06/09 21:46:59;;;;;;;16.65;7.82;;;;;;;14.36;100.00;96426.28;10538649;28;20646;-67
2023/06/09 21:52:00;;;;;;;9.30;7.47;;;;;;;14.27;100.00;96432.69;10538546;28;20247;-65
2023/06/09 21:57:00;;;;;;;8.95;7.38;;;;;;;14.31;100.00;96433.94;10538611;28;20202;-66
2023/06/09 22:02:00;;;;;;;13.07;7.97;;;;;;;14.21;100.00;96443.97;10538178;28;20190;-68
2023/06/09 22:07:01;;;;;;;8.40;7.50;;;;;;;14.12;100.00;96440.66;10538017;28;20374;-66
2023/06/09 22:12:01;;;;;;;11.40;7.80;;;;;;;13.99;100.00;96440.50;10537966;28;20647;-66
2023/06/09 22:17:02;;;;;;;10.02;7.93;;;;;;;13.80;100.00;96449.75;10537699;28;20240;-66
2023/06/09 22:22:02;;;;;;;11.52;7.93;;;;;;;13.89;100.00;96441.59;10537763;28;20194;-66
2023/06/09 22:27:04;;;;;;;9.70;8.18;;;;;;;13.89;100.00;96438.97;10537650;28;20227;-66
2023/06/09 22:32:04;;;;;;;9.52;8.10;;;;;;;13.76;100.00;96435.34;10537252;28;20197;-66
2023/06/09 22:37:05;;;;;;;8.65;7.47;;;;;;;13.83;100.00;96452.88;10537307;28;20203;-66
2023/06/09 22:42:06;;;;;;;9.35;7.75;;;;;;;13.69;100.00;96456.31;10536865;28;20187;-66
2023/06/09 22:47:07;;;;;;;9.15;7.97;;;;;;;13.63;100.00;96460.50;10536524;28;20755;-66
2023/06/09 22:52:10;;;;;;;10.85;7.80;;;;;;;13.54;100.00;96451.88;10536854;28;20250;-66
2023/06/09 22:57:10;;;;;;;11.00;8.18;;;;;;;13.64;100.00;96437.63;10536356;28;20685;-67
2023/06/09 23:02:11;;;;;;;11.88;8.30;;;;;;;13.61;100.00;96430.09;10536755;28;20186;-66
2023/06/09 23:07:11;;;;;;;9.63;8.63;;;;;;;13.36;100.00;96443.53;10536105;28;20305;-66